createdAt,value
2023-06-17T00:01:22.007Z,2.65
2023-06-17T00:03:49.660Z,2.83
2023-06-17T00:06:17.187Z,2.78
2023-06-17T00:08:44.756Z,3.20
2023-06-17T00:11:12.706Z,3.25
2023-06-17T00:13:40.285Z,3.63
2023-06-17T00:16:07.884Z,2.75
2023-06-17T00:18:35.454Z,3.00
2023-06-17T00:21:03.262Z,3.50
2023-06-17T00:23:32.101Z,2.72
2023-06-17T00:25:59.642Z,2.47
2023-06-17T00:28:27.212Z,2.95
2023-06-17T00:30:54.760Z,3.83
2023-06-17T00:33:22.310Z,3.17
2023-06-17T00:35:49.989Z,3.25
2023-06-17T00:38:17.593Z,3.30
2023-06-17T00:40:45.157Z,3.42
2023-06-17T00:43:12.892Z,3.10
2023-06-17T00:45:40.921Z,3.03
2023-06-17T00:48:11.084Z,2.60
2023-06-17T00:50:40.273Z,3.03
2023-06-17T00:53:08.304Z,2.42
2023-06-17T00:55:36.197Z,2.90
2023-06-17T00:58:04.239Z,4.50
2023-06-17T01:00:32.106Z,4.15
2023-06-17T01:02:59.895Z,4.40
2023-06-17T01:05:28.250Z,4.43
2023-06-17T01:08:09.483Z,4.38
2023-06-17T01:10:48.678Z,5.05
2023-06-17T01:13:18.142Z,5.40
2023-06-17T01:15:46.057Z,4.25
2023-06-17T01:18:18.710Z,3.63
2023-06-17T01:20:48.267Z,4.82
2023-06-17T01:23:17.319Z,4.68
2023-06-17T01:25:45.478Z,5.28
2023-06-17T01:28:17.055Z,5.82
2023-06-17T01:30:49.519Z,4.45
2023-06-17T01:33:17.477Z,4.05
2023-06-17T01:35:53.275Z,3.85
2023-06-17T01:38:32.253Z,4.82
2023-06-17T01:41:08.966Z,4.18
2023-06-17T01:43:37.974Z,5.00
2023-06-17T01:46:07.936Z,3.85
2023-06-17T01:48:35.753Z,5.07
2023-06-17T01:51:03.404Z,4.10
2023-06-17T01:53:30.998Z,4.50
2023-06-17T01:55:58.559Z,4.00
2023-06-17T01:58:26.088Z,4.50
2023-06-17T02:00:53.711Z,4.05
2023-06-17T02:03:21.497Z,3.78
2023-06-17T02:05:49.197Z,4.22
2023-06-17T02:08:16.948Z,4.40
2023-06-17T02:10:44.504Z,4.32
2023-06-17T02:13:12.051Z,4.20
2023-06-17T02:15:43.432Z,4.10
2023-06-17T02:18:11.794Z,4.50
2023-06-17T02:20:39.425Z,4.25
2023-06-17T02:23:09.156Z,4.05
2023-06-17T02:25:37.918Z,4.45
2023-06-17T02:28:05.702Z,4.18
2023-06-17T02:30:33.258Z,4.88
2023-06-17T02:33:01.959Z,4.55
2023-06-17T02:35:29.734Z,4.88
2023-06-17T02:37:57.716Z,4.47
2023-06-17T02:40:25.472Z,4.45
2023-06-17T02:42:53.103Z,4.20
2023-06-17T02:45:20.655Z,4.63
2023-06-17T02:47:48.539Z,4.22
2023-06-17T02:50:16.207Z,5.40
2023-06-17T02:52:47.700Z,4.97
2023-06-17T02:55:16.595Z,5.35
2023-06-17T02:57:44.245Z,5.05
2023-06-17T03:00:12.296Z,5.30
2023-06-17T03:02:39.993Z,4.53
2023-06-17T03:05:08.905Z,6.03
2023-06-17T03:07:37.229Z,6.05
2023-06-17T03:10:05.576Z,5.80
2023-06-17T03:12:33.390Z,5.05
2023-06-17T03:15:01.810Z,5.03
2023-06-17T03:17:29.799Z,5.18
2023-06-17T03:19:58.302Z,5.50
2023-06-17T03:22:25.842Z,5.70
2023-06-17T03:24:53.465Z,6.18
2023-06-17T03:27:21.567Z,6.07
2023-06-17T03:29:50.161Z,5.68
2023-06-17T03:32:17.712Z,6.05
2023-06-17T03:34:45.300Z,6.05
2023-06-17T03:37:12.842Z,6.90
2023-06-17T03:39:40.392Z,6.22
2023-06-17T03:42:08.302Z,6.03
2023-06-17T03:44:35.868Z,5.65
2023-06-17T03:47:04.051Z,5.95
2023-06-17T03:49:31.688Z,7.32
2023-06-17T03:51:59.202Z,6.10
2023-06-17T03:54:27.450Z,6.18
2023-06-17T03:56:55.027Z,7.22
2023-06-17T03:59:22.566Z,6.43
2023-06-17T04:01:50.108Z,7.07
2023-06-17T04:04:17.736Z,6.40
2023-06-17T04:06:49.034Z,6.80
2023-06-17T04:09:16.565Z,6.22
2023-06-17T04:11:44.141Z,5.70
2023-06-17T04:14:11.765Z,6.63
2023-06-17T04:16:39.295Z,6.80
2023-06-17T04:19:06.881Z,6.15
2023-06-17T04:21:34.465Z,6.00
2023-06-17T04:24:02.059Z,7.28
2023-06-17T04:26:29.610Z,8.80
2023-06-17T04:28:57.270Z,8.55
2023-06-17T04:31:26.258Z,8.02
2023-06-17T04:33:53.836Z,6.50
2023-06-17T04:36:22.175Z,6.32
2023-06-17T04:38:50.951Z,6.15
2023-06-17T04:41:19.249Z,9.70
2023-06-17T04:43:49.636Z,10.65
2023-06-17T04:46:18.691Z,12.60
2023-06-17T04:48:46.749Z,13.63
2023-06-17T04:51:14.544Z,13.05
2023-06-17T04:53:42.036Z,12.60
2023-06-17T04:56:09.564Z,11.10
2023-06-17T04:58:37.124Z,12.05
2023-06-17T05:01:04.742Z,12.05
2023-06-17T05:03:32.635Z,12.98
2023-06-17T05:06:00.213Z,11.57
2023-06-17T05:08:27.819Z,12.77
2023-06-17T05:10:55.382Z,12.85
2023-06-17T05:13:22.937Z,12.52
2023-06-17T05:15:50.493Z,12.65
2023-06-17T05:18:18.033Z,12.18
2023-06-17T05:20:45.683Z,12.63
2023-06-17T05:23:13.214Z,13.20
2023-06-17T05:25:40.760Z,13.23
2023-06-17T05:28:11.538Z,11.75
2023-06-17T05:30:40.214Z,10.65
2023-06-17T05:33:08.037Z,11.18
2023-06-17T05:35:35.686Z,10.90
2023-06-17T05:38:03.258Z,11.10
2023-06-17T05:40:30.806Z,11.00
2023-06-17T05:42:58.360Z,10.77
2023-06-17T05:45:26.099Z,8.88
2023-06-17T05:47:53.821Z,9.20
2023-06-17T05:50:22.461Z,7.38
2023-06-17T05:52:50.140Z,7.45
2023-06-17T05:55:17.812Z,7.95
2023-06-17T05:57:45.709Z,7.32
2023-06-17T06:00:14.282Z,7.72
2023-06-17T06:02:41.909Z,7.55
2023-06-17T06:05:09.714Z,7.07
2023-06-17T06:07:39.027Z,6.97
2023-06-17T06:10:08.241Z,7.75
2023-06-17T06:12:36.377Z,7.85
2023-06-17T06:15:04.570Z,7.32
2023-06-17T06:17:32.105Z,7.28
2023-06-17T06:19:59.800Z,7.15
2023-06-17T06:22:27.851Z,5.70
2023-06-17T06:24:55.414Z,5.65
2023-06-17T06:27:22.985Z,5.68
2023-06-17T06:29:50.573Z,6.32
2023-06-17T06:32:18.118Z,7.50
2023-06-17T06:34:47.344Z,6.30
2023-06-17T06:37:14.958Z,5.03
2023-06-17T06:39:43.993Z,4.30
2023-06-17T06:42:12.640Z,3.83
2023-06-17T06:44:40.325Z,3.72
2023-06-17T06:47:08.016Z,3.85
2023-06-17T06:49:35.899Z,3.00
2023-06-17T06:52:03.427Z,3.67
2023-06-17T06:54:30.976Z,2.72
2023-06-17T06:56:58.872Z,2.85
2023-06-17T06:59:26.415Z,2.75
2023-06-17T07:01:53.907Z,2.50
2023-06-17T07:04:22.659Z,3.30
2023-06-17T07:06:50.289Z,2.60
2023-06-17T07:09:17.818Z,2.72
2023-06-17T07:11:45.415Z,1.95
2023-06-17T07:14:14.463Z,2.67
2023-06-17T07:16:42.214Z,2.33
2023-06-17T07:19:09.831Z,1.98
2023-06-17T07:21:37.353Z,2.10
2023-06-17T07:24:05.151Z,2.05
2023-06-17T07:26:33.372Z,1.85
2023-06-17T07:29:02.026Z,1.80
2023-06-17T07:31:31.649Z,1.55
2023-06-17T07:34:00.190Z,1.90
2023-06-17T07:36:27.973Z,1.70
2023-06-17T07:38:55.674Z,2.30
2023-06-17T07:41:23.198Z,2.53
2023-06-17T07:43:50.685Z,2.35
2023-06-17T07:46:18.402Z,2.13
2023-06-17T07:48:45.966Z,2.22
2023-06-17T07:51:13.592Z,2.20
2023-06-17T07:53:41.159Z,2.45
2023-06-17T07:56:08.836Z,2.13
2023-06-17T07:58:36.471Z,2.13
2023-06-17T08:01:04.200Z,2.17
2023-06-17T08:03:31.937Z,2.30
2023-06-17T08:05:59.565Z,2.28
2023-06-17T08:08:27.116Z,1.85
2023-06-17T08:10:54.667Z,1.52
2023-06-17T08:13:22.227Z,1.85
2023-06-17T08:15:50.964Z,2.00
2023-06-17T08:18:19.111Z,1.75
2023-06-17T08:20:46.771Z,1.63
2023-06-17T08:23:14.349Z,1.77
2023-06-17T08:25:42.334Z,1.80
2023-06-17T08:28:10.299Z,1.52
2023-06-17T08:30:37.882Z,1.50
2023-06-17T08:33:05.647Z,1.83
2023-06-17T08:35:33.259Z,1.95
2023-06-17T08:38:01.209Z,1.77
2023-06-17T08:40:29.305Z,1.63
2023-06-17T08:43:03.325Z,1.98
2023-06-17T08:45:34.479Z,1.60
2023-06-17T08:48:02.309Z,1.45
2023-06-17T08:50:30.387Z,1.35
2023-06-17T08:52:59.889Z,2.03
2023-06-17T08:55:27.482Z,1.48
2023-06-17T08:57:55.188Z,1.83
2023-06-17T09:00:23.107Z,1.48
2023-06-17T09:02:51.078Z,1.63
2023-06-17T09:05:18.904Z,1.88
2023-06-17T09:07:46.965Z,1.50
2023-06-17T09:10:17.853Z,1.98
2023-06-17T09:12:45.584Z,1.85
2023-06-17T09:15:19.838Z,2.13
2023-06-17T09:17:48.642Z,2.03
2023-06-17T09:20:19.033Z,1.67
2023-06-17T09:22:48.942Z,1.63
2023-06-17T09:25:19.263Z,1.60
2023-06-17T09:28:11.898Z,1.80
2023-06-17T09:30:44.635Z,1.58
2023-06-17T09:33:23.262Z,1.65
2023-06-17T09:36:05.140Z,1.98
2023-06-17T09:38:33.190Z,1.65
2023-06-17T09:41:00.977Z,1.83
2023-06-17T09:43:29.900Z,2.22
2023-06-17T09:46:02.282Z,1.70
2023-06-17T09:48:33.393Z,1.70
2023-06-17T09:51:01.618Z,1.90
2023-06-17T09:53:31.442Z,1.90
2023-06-17T09:56:01.111Z,1.80
2023-06-17T09:58:31.880Z,2.17
2023-06-17T10:01:01.678Z,2.03
2023-06-17T10:03:30.197Z,1.88
2023-06-17T10:06:09.867Z,1.80
2023-06-17T10:08:39.076Z,1.65
2023-06-17T10:11:06.979Z,1.98
2023-06-17T10:13:38.121Z,1.98
2023-06-17T10:16:08.887Z,2.17
2023-06-17T10:18:39.249Z,1.83
2023-06-17T10:21:11.118Z,1.20
2023-06-17T10:23:39.901Z,2.17
2023-06-17T10:26:13.275Z,1.70
2023-06-17T10:28:58.844Z,1.88
2023-06-17T10:31:27.721Z,1.85
2023-06-17T10:33:56.767Z,1.48
2023-06-17T10:36:26.136Z,1.80
2023-06-17T10:39:00.132Z,2.15
2023-06-17T10:41:58.821Z,1.63
2023-06-17T10:44:33.256Z,2.10
2023-06-17T10:47:01.131Z,1.85
2023-06-17T10:49:38.647Z,1.92
2023-06-17T10:52:06.534Z,2.10
2023-06-17T10:54:35.408Z,1.50
2023-06-17T10:57:05.405Z,1.60
2023-06-17T10:59:34.908Z,1.83
2023-06-17T11:02:04.845Z,1.85
2023-06-17T11:04:33.323Z,1.83
2023-06-17T11:07:02.091Z,1.40
2023-06-17T11:09:30.672Z,1.60
2023-06-17T11:11:59.695Z,1.73
2023-06-17T11:14:29.996Z,1.30
2023-06-17T11:16:58.106Z,1.50
2023-06-17T11:19:26.698Z,1.20
2023-06-17T11:22:04.282Z,1.60
2023-06-17T11:24:33.348Z,1.50
2023-06-17T11:27:02.140Z,1.50
2023-06-17T11:29:31.373Z,1.55
2023-06-17T11:32:03.181Z,2.13
2023-06-17T11:34:32.914Z,1.95
2023-06-17T11:37:07.579Z,1.67
2023-06-17T11:39:39.402Z,1.70
2023-06-17T11:42:08.042Z,1.42
2023-06-17T11:44:36.701Z,1.52
2023-06-17T11:47:05.710Z,1.40
2023-06-17T11:49:33.451Z,1.65
2023-06-17T11:52:10.290Z,1.63
2023-06-17T11:54:50.000Z,1.15
2023-06-17T11:57:25.630Z,1.30
2023-06-17T11:59:54.112Z,1.60
2023-06-17T12:02:21.773Z,1.20
2023-06-17T12:04:49.901Z,1.27
2023-06-17T12:07:18.009Z,1.33
2023-06-17T12:09:56.230Z,1.20
2023-06-17T12:12:30.647Z,1.30
2023-06-17T12:15:02.739Z,2.10
2023-06-17T12:17:50.791Z,1.35
2023-06-17T12:20:20.682Z,1.20
2023-06-17T12:22:50.353Z,1.27
2023-06-17T12:25:17.957Z,1.38
2023-06-17T12:27:45.669Z,1.40
2023-06-17T12:30:14.095Z,1.35
2023-06-17T12:32:42.076Z,1.27
2023-06-17T12:35:12.555Z,1.20
2023-06-17T12:37:42.855Z,1.27
2023-06-17T12:40:11.059Z,1.50
2023-06-17T12:42:39.673Z,1.63
2023-06-17T12:45:08.154Z,1.50
2023-06-17T12:47:37.881Z,1.23
2023-06-17T12:50:07.184Z,1.30
2023-06-17T12:52:35.509Z,1.25
2023-06-17T12:55:05.790Z,1.50
2023-06-17T12:57:33.612Z,1.20
2023-06-17T13:00:01.555Z,1.20
2023-06-17T13:02:32.366Z,1.13
2023-06-17T13:05:00.183Z,1.10
2023-06-17T13:07:29.113Z,1.27
2023-06-17T13:09:58.381Z,1.20
2023-06-17T13:12:26.124Z,1.23
2023-06-17T13:14:54.854Z,1.20
2023-06-17T13:17:23.645Z,1.23
2023-06-17T13:19:51.194Z,1.10
2023-06-17T13:22:20.128Z,1.15
2023-06-17T13:24:47.649Z,0.77
2023-06-17T13:27:19.718Z,1.10
2023-06-17T13:29:47.997Z,1.00
2023-06-17T13:32:17.674Z,0.98
2023-06-17T13:34:47.077Z,1.13
2023-06-17T13:37:14.808Z,0.90
2023-06-17T13:39:42.705Z,0.90
2023-06-17T13:42:10.392Z,1.33
2023-06-17T13:44:42.149Z,1.27
2023-06-17T13:47:09.793Z,0.77
2023-06-17T13:49:37.417Z,1.33
2023-06-17T13:52:06.720Z,1.20
2023-06-17T13:54:34.281Z,0.82
2023-06-17T13:57:02.125Z,1.00
2023-06-17T13:59:29.855Z,0.95
2023-06-17T14:01:57.385Z,1.10
2023-06-17T14:04:25.034Z,0.98
2023-06-17T14:06:52.799Z,1.50
2023-06-17T14:09:20.463Z,1.00
2023-06-17T14:11:48.885Z,1.10
2023-06-17T14:14:16.544Z,1.10
2023-06-17T14:16:44.377Z,1.10
2023-06-17T14:19:12.071Z,0.90
2023-06-17T14:21:39.694Z,0.95
2023-06-17T14:24:12.473Z,0.82
2023-06-17T14:26:42.272Z,1.38
2023-06-17T14:29:10.952Z,0.90
2023-06-17T14:31:39.318Z,0.95
2023-06-17T14:34:06.912Z,1.60
2023-06-17T14:36:34.502Z,1.05
2023-06-17T14:39:02.668Z,0.90
2023-06-17T14:41:33.555Z,1.00
2023-06-17T14:44:01.373Z,1.13
2023-06-17T14:46:29.109Z,0.88
2023-06-17T14:48:56.760Z,1.05
2023-06-17T14:51:24.299Z,1.10
2023-06-17T14:53:51.828Z,0.93
2023-06-17T14:56:29.725Z,1.00
2023-06-17T14:58:58.224Z,1.10
2023-06-17T15:01:30.350Z,1.23
2023-06-17T15:03:58.219Z,1.20
2023-06-17T15:06:25.879Z,1.17
2023-06-17T15:09:08.649Z,1.20
2023-06-17T15:11:36.527Z,1.98
2023-06-17T15:14:04.119Z,1.20
2023-06-17T15:16:31.661Z,1.23
2023-06-17T15:18:59.325Z,1.00
2023-06-17T15:21:26.909Z,1.00
2023-06-17T15:23:54.472Z,1.10
2023-06-17T15:26:22.211Z,1.05
2023-06-17T15:28:49.745Z,1.23
2023-06-17T15:31:17.336Z,1.10
2023-06-17T15:33:44.973Z,1.10
2023-06-17T15:36:12.533Z,1.17
2023-06-17T15:38:40.039Z,1.13
2023-06-17T15:41:07.605Z,1.10
2023-06-17T15:43:35.231Z,1.10
2023-06-17T15:46:03.015Z,1.00
2023-06-17T15:48:31.064Z,1.23
2023-06-17T15:50:58.628Z,1.08
2023-06-17T15:53:26.464Z,1.08
2023-06-17T15:55:53.994Z,1.10
2023-06-17T15:58:21.545Z,1.10
2023-06-17T16:00:49.393Z,1.13
2023-06-17T16:03:37.392Z,1.05
2023-06-17T16:06:05.270Z,1.30
2023-06-17T16:08:32.823Z,1.17
2023-06-17T16:11:00.439Z,1.88
2023-06-17T16:13:28.093Z,1.13
2023-06-17T16:15:56.512Z,1.30
2023-06-17T16:18:24.231Z,1.20
2023-06-17T16:20:51.932Z,1.73
2023-06-17T16:23:19.466Z,1.52
2023-06-17T16:25:55.527Z,6.15
2023-06-17T16:28:24.182Z,1.30
2023-06-17T16:30:51.808Z,1.27
2023-06-17T16:33:19.373Z,2.08
2023-06-17T16:35:46.974Z,1.20
2023-06-17T16:38:14.597Z,1.20
2023-06-17T16:40:42.240Z,1.15
2023-06-17T16:43:09.879Z,1.75
2023-06-17T16:45:38.304Z,1.30
2023-06-17T16:48:08.039Z,1.23
2023-06-17T16:50:37.426Z,1.85
2023-06-17T16:53:05.000Z,2.67
2023-06-17T16:55:33.605Z,1.40
2023-06-17T16:58:01.570Z,1.20
2023-06-17T17:00:30.603Z,2.30
2023-06-17T17:02:58.991Z,3.05
2023-06-17T17:05:26.684Z,2.58
2023-06-17T17:07:55.146Z,1.50
2023-06-17T17:10:24.820Z,1.23
2023-06-17T17:12:53.382Z,3.58
2023-06-17T17:15:21.611Z,1.45
2023-06-17T17:17:49.966Z,1.60
2023-06-17T17:20:17.832Z,1.60
2023-06-17T17:22:46.660Z,1.50
2023-06-17T17:25:14.512Z,1.65
2023-06-17T17:27:42.513Z,1.40
2023-06-17T17:30:11.225Z,1.40
2023-06-17T17:32:39.017Z,1.38
2023-06-17T17:35:07.307Z,1.60
2023-06-17T17:37:35.690Z,1.73
2023-06-17T17:40:03.481Z,1.83
2023-06-17T17:42:31.040Z,1.45
2023-06-17T17:44:58.582Z,1.20
2023-06-17T17:47:26.183Z,1.63
2023-06-17T17:49:53.735Z,1.65
2023-06-17T17:52:21.736Z,1.80
2023-06-17T17:55:01.179Z,2.08
2023-06-17T17:57:30.231Z,2.13
2023-06-17T17:59:57.861Z,1.63
2023-06-17T18:02:26.461Z,1.83
2023-06-17T18:04:54.173Z,2.00
2023-06-17T18:07:21.829Z,2.10
2023-06-17T18:09:49.456Z,1.77
2023-06-17T18:12:17.214Z,1.60
2023-06-17T18:14:44.747Z,1.63
2023-06-17T18:17:12.750Z,1.92
2023-06-17T18:19:40.713Z,1.60
2023-06-17T18:22:08.245Z,3.17
2023-06-17T18:24:35.917Z,2.17
2023-06-17T18:27:03.635Z,2.00
2023-06-17T18:29:31.667Z,2.53
2023-06-17T18:31:59.174Z,2.92
2023-06-17T18:34:26.747Z,2.25
2023-06-17T18:36:54.762Z,1.92
2023-06-17T18:39:22.329Z,2.60
2023-06-17T18:41:49.800Z,2.15
2023-06-17T18:44:17.338Z,2.38
2023-06-17T18:46:44.926Z,2.70
2023-06-17T18:49:22.277Z,2.83
2023-06-17T18:51:50.834Z,2.80
2023-06-17T18:54:18.766Z,2.83
2023-06-17T18:56:46.552Z,2.30
2023-06-17T18:59:15.554Z,2.78
2023-06-17T19:01:43.633Z,2.53
2023-06-17T19:04:11.862Z,2.78
2023-06-17T19:06:39.965Z,2.60
2023-06-17T19:09:07.698Z,3.35
2023-06-17T19:11:35.719Z,2.83
2023-06-17T19:14:03.640Z,2.45
2023-06-17T19:16:31.533Z,2.85
2023-06-17T19:18:59.257Z,3.47
2023-06-17T19:21:26.957Z,3.47
2023-06-17T19:23:54.549Z,2.40
2023-06-17T19:26:22.305Z,2.63
2023-06-17T19:28:49.815Z,3.05
2023-06-17T19:31:17.363Z,3.00
2023-06-17T19:33:45.581Z,2.53
2023-06-17T19:36:13.316Z,2.50
2023-06-17T19:38:40.842Z,3.13
2023-06-17T19:41:08.383Z,2.67
2023-06-17T19:43:36.825Z,2.85
2023-06-17T19:46:05.057Z,3.15
2023-06-17T19:48:32.686Z,3.08
2023-06-17T19:51:01.236Z,3.15
2023-06-17T19:53:28.971Z,3.05
2023-06-17T19:55:57.062Z,2.72
2023-06-17T19:58:25.194Z,3.33
2023-06-17T20:00:53.751Z,4.05
2023-06-17T20:03:21.521Z,3.30
2023-06-17T20:05:49.155Z,2.78
2023-06-17T20:08:16.725Z,3.35
2023-06-17T20:10:44.280Z,2.90
2023-06-17T20:13:12.003Z,3.80
2023-06-17T20:15:39.563Z,3.30
2023-06-17T20:18:07.434Z,3.13
2023-06-17T20:20:35.183Z,3.35
2023-06-17T20:23:02.764Z,3.55
2023-06-17T20:25:30.532Z,2.92
2023-06-17T20:27:58.043Z,3.40
2023-06-17T20:30:26.022Z,4.63
2023-06-17T20:32:53.686Z,3.97
2023-06-17T20:35:21.435Z,2.97
2023-06-17T20:37:49.015Z,3.45
2023-06-17T20:40:16.642Z,3.67
2023-06-17T20:42:44.200Z,2.88
2023-06-17T20:45:12.247Z,3.22
2023-06-17T20:47:39.887Z,4.10
2023-06-17T20:50:08.035Z,3.53
2023-06-17T20:52:37.069Z,3.13
2023-06-17T20:55:05.041Z,3.40
2023-06-17T20:57:32.555Z,4.53
2023-06-17T21:00:00.241Z,3.05
2023-06-17T21:02:28.062Z,4.13
2023-06-17T21:04:56.933Z,5.78
2023-06-17T21:07:24.585Z,3.53
2023-06-17T21:09:52.715Z,3.20
2023-06-17T21:12:21.898Z,3.67
2023-06-17T21:14:49.861Z,4.43
2023-06-17T21:17:17.781Z,4.57
2023-06-17T21:19:45.615Z,4.60
2023-06-17T21:22:13.281Z,3.55
2023-06-17T21:24:42.083Z,4.55
2023-06-17T21:27:10.841Z,3.50
2023-06-17T21:29:39.559Z,3.20
2023-06-17T21:32:09.484Z,2.92
2023-06-17T21:34:38.159Z,4.35
2023-06-17T21:37:07.637Z,3.08
2023-06-17T21:39:35.387Z,3.33
2023-06-17T21:42:03.066Z,2.90
2023-06-17T21:44:32.661Z,3.65
2023-06-17T21:47:01.862Z,3.38
2023-06-17T21:49:29.466Z,4.20
2023-06-17T21:51:58.438Z,3.72
2023-06-17T21:54:26.000Z,3.85
2023-06-17T21:56:53.818Z,3.90
2023-06-17T21:59:21.379Z,3.85
2023-06-17T22:01:48.939Z,3.85
2023-06-17T22:04:16.537Z,3.70
2023-06-17T22:06:44.249Z,3.60
2023-06-17T22:09:12.098Z,3.70
2023-06-17T22:11:39.773Z,3.00
2023-06-17T22:14:08.487Z,3.17
2023-06-17T22:16:37.041Z,3.47
2023-06-17T22:19:04.568Z,4.57
2023-06-17T22:21:32.124Z,2.90
2023-06-17T22:23:59.752Z,4.00
2023-06-17T22:26:29.138Z,3.63
2023-06-17T22:28:56.645Z,3.30
2023-06-17T22:31:24.171Z,3.75
2023-06-17T22:33:51.779Z,3.92
2023-06-17T22:36:19.369Z,4.32
2023-06-17T22:38:46.902Z,3.40
2023-06-17T22:41:14.564Z,4.13
2023-06-17T22:43:42.248Z,3.15
2023-06-17T22:46:11.265Z,3.97
2023-06-17T22:48:39.063Z,3.95
2023-06-17T22:51:07.499Z,4.63
2023-06-17T22:53:35.420Z,3.80
2023-06-17T22:56:03.505Z,3.15
2023-06-17T22:58:31.152Z,4.00
2023-06-17T23:00:58.753Z,3.45
2023-06-17T23:03:26.521Z,4.10
2023-06-17T23:05:54.129Z,3.70
2023-06-17T23:08:21.663Z,4.88
2023-06-17T23:10:49.209Z,4.00
2023-06-17T23:13:16.849Z,3.70
2023-06-17T23:15:44.608Z,2.72
2023-06-17T23:18:12.325Z,3.67
2023-06-17T23:20:39.988Z,3.33
2023-06-17T23:23:08.156Z,3.75
2023-06-17T23:25:35.850Z,3.88
2023-06-17T23:28:03.431Z,3.67
2023-06-17T23:30:31.092Z,4.47
2023-06-17T23:32:58.661Z,3.10
2023-06-17T23:35:26.256Z,3.45
2023-06-17T23:37:53.804Z,3.60
2023-06-17T23:40:21.770Z,2.67
2023-06-17T23:42:49.653Z,3.78
2023-06-17T23:45:17.632Z,2.83
2023-06-17T23:47:45.317Z,2.75
2023-06-17T23:50:13.036Z,3.20
2023-06-17T23:52:40.669Z,3.50
2023-06-17T23:55:08.650Z,3.17
2023-06-17T23:57:36.298Z,3.47
